Time;durP1;ratioP1;P1;durP2;ratioP2;P2;SDS_P1;SDS_P2;PMS_P1;PMS_P2;Temp;Humidity;BMP_temperature;BMP_pressure;BME280_temperature;BME280_humidity;BME280_pressure;Samples;Min_cycle;Max_cycle;Signal;HPM_P1;HPM_P2
2022/11/07 00:02:22;;;;;;;18.47;16.77;;;8.30;99.90;;;;;;5005574;28;20202;-52
2022/11/07 00:04:47;;;;;;;19.60;17.70;;;8.20;99.90;;;;;;5004725;28;20203;-47
2022/11/07 00:07:13;;;;;;;19.03;17.23;;;8.30;99.90;;;;;;4991138;28;20180;-50
2022/11/07 00:09:38;;;;;;;18.90;17.20;;;8.30;99.90;;;;;;4992265;28;20183;-54
2022/11/07 00:12:04;;;;;;;18.63;16.73;;;8.30;99.90;;;;;;4995231;28;20198;-52
2022/11/07 00:14:30;;;;;;;19.03;17.03;;;8.40;99.90;;;;;;5009175;28;20194;-49
2022/11/07 00:16:56;;;;;;;19.83;17.90;;;8.40;99.90;;;;;;5010228;28;20765;-49
2022/11/07 00:19:22;;;;;;;18.67;16.97;;;8.40;99.90;;;;;;5009031;28;20552;-50
2022/11/07 00:21:48;;;;;;;20.10;18.17;;;8.40;99.90;;;;;;5008795;28;20470;-53
2022/11/07 00:24:18;;;;;;;19.20;17.20;;;8.40;99.90;;;;;;5005486;28;20191;-49
2022/11/07 00:26:45;;;;;;;19.67;17.77;;;8.50;99.90;;;;;;4996577;28;20431;-49
2022/11/07 00:29:16;;;;;;;18.73;16.87;;;8.50;99.90;;;;;;5001822;28;20454;-50
2022/11/07 00:31:41;;;;;;;18.43;16.73;;;8.60;99.90;;;;;;5001984;28;20441;-49
2022/11/07 00:34:07;;;;;;;19.20;17.40;;;8.70;99.90;;;;;;5000845;28;20435;-52
2022/11/07 00:36:33;;;;;;;20.10;18.10;;;8.70;99.90;;;;;;5005505;28;20182;-48
2022/11/07 00:38:59;;;;;;;18.70;17.00;;;8.60;99.90;;;;;;5001841;28;20224;-48
2022/11/07 00:41:24;;;;;;;19.23;17.43;;;8.70;99.90;;;;;;5007536;28;20433;-47
2022/11/07 00:43:51;;;;;;;19.47;17.60;;;8.70;99.90;;;;;;5004797;28;20282;-53
2022/11/07 00:46:18;;;;;;;18.80;16.93;;;8.70;99.90;;;;;;4998192;28;20444;-49
2022/11/07 00:48:44;;;;;;;20.50;18.50;;;8.80;99.90;;;;;;4994989;28;20446;-52
2022/11/07 00:51:15;;;;;;;20.53;18.53;;;8.80;99.90;;;;;;5008665;28;20426;-51
2022/11/07 00:53:42;;;;;;;21.53;19.30;;;8.80;99.90;;;;;;5007748;28;20438;-48
2022/11/07 00:56:11;;;;;;;21.60;19.63;;;8.80;99.90;;;;;;5008347;28;20952;-46
2022/11/07 00:58:37;;;;;;;22.23;20.13;;;8.70;99.90;;;;;;5008350;28;20438;-48
2022/11/07 01:01:11;;;;;;;21.97;19.97;;;8.60;99.90;;;;;;5009584;28;20402;-51
2022/11/07 01:06:21;;;;;;;22.67;20.53;;;8.50;99.90;;;;;;5003139;28;20452;-51
2022/11/07 01:08:47;;;;;;;22.97;20.67;;;8.40;99.90;;;;;;4993457;28;20778;-51
2022/11/07 01:11:13;;;;;;;24.30;21.80;;;8.40;99.90;;;;;;5008803;28;20735;-49
2022/11/07 01:13:38;;;;;;;23.80;21.40;;;8.40;99.90;;;;;;5003396;28;21065;-52
2022/11/07 01:16:07;;;;;;;22.93;20.73;;;8.30;99.90;;;;;;4996061;28;20473;-52
2022/11/07 01:18:32;;;;;;;23.40;20.93;;;8.40;99.90;;;;;;5008296;28;20178;-49
2022/11/07 01:20:58;;;;;;;23.67;21.23;;;8.30;99.90;;;;;;5007474;28;20458;-48
2022/11/07 01:23:23;;;;;;;21.93;19.87;;;8.30;99.90;;;;;;5006041;28;20191;-48
2022/11/07 01:25:49;;;;;;;22.17;20.00;;;8.30;99.90;;;;;;5007121;28;20270;-54
2022/11/07 01:28:14;;;;;;;23.47;21.20;;;8.30;99.90;;;;;;5001287;28;20559;-53
2022/11/07 01:30:42;;;;;;;22.97;20.57;;;8.30;99.90;;;;;;4999548;28;20202;-52
2022/11/07 01:33:09;;;;;;;23.20;20.80;;;8.20;99.90;;;;;;5001111;28;20218;-50
2022/11/07 01:35:35;;;;;;;24.10;21.70;;;8.20;99.90;;;;;;5008659;28;20825;-50
2022/11/07 01:38:01;;;;;;;23.50;20.77;;;8.20;99.90;;;;;;5010774;28;20460;-49
2022/11/07 01:40:27;;;;;;;26.20;23.00;;;8.20;99.90;;;;;;5012011;28;20538;-52
2022/11/07 01:42:53;;;;;;;22.80;20.40;;;8.20;99.90;;;;;;5009982;28;20887;-53
2022/11/07 01:45:32;;;;;;;23.57;21.03;;;8.20;99.90;;;;;;5013479;28;20484;-51
2022/11/07 01:48:01;;;;;;;23.27;20.77;;;8.20;99.90;;;;;;5008506;28;20202;-49
2022/11/07 01:50:27;;;;;;;23.90;21.37;;;8.20;99.90;;;;;;5013087;28;20418;-51
2022/11/07 01:52:54;;;;;;;24.40;22.00;;;8.20;99.90;;;;;;5007506;28;20477;-49
2022/11/07 01:55:26;;;;;;;21.60;19.30;;;8.20;99.90;;;;;;4993362;28;20466;-53
2022/11/07 01:57:57;;;;;;;23.23;20.83;;;8.20;99.90;;;;;;4992377;28;20485;-52
2022/11/07 02:00:24;;;;;;;24.73;21.10;;;8.10;99.90;;;;;;5011482;28;20433;-48
2022/11/07 02:02:56;;;;;;;23.80;20.83;;;8.20;99.90;;;;;;5013294;28;21318;-50
2022/11/07 02:05:33;;;;;;;22.90;20.50;;;8.20;99.90;;;;;;5011469;28;20438;-48
2022/11/07 02:08:00;;;;;;;24.70;22.00;;;8.30;99.90;;;;;;4993347;28;21173;-54
2022/11/07 02:10:26;;;;;;;24.53;21.13;;;8.20;99.90;;;;;;4998326;28;20438;-51
2022/11/07 02:12:55;;;;;;;23.47;20.93;;;8.20;99.90;;;;;;5012811;28;20717;-52
2022/11/07 02:15:21;;;;;;;25.13;20.87;;;8.20;99.90;;;;;;5011148;28;20466;-51
2022/11/07 02:17:47;;;;;;;24.17;21.23;;;8.20;99.90;;;;;;5009755;28;21053;-49
2022/11/07 02:20:12;;;;;;;23.00;20.67;;;8.10;99.90;;;;;;4995017;28;20330;-49
2022/11/07 02:23:12;;;;;;;25.53;20.63;;;8.00;99.90;;;;;;5005953;28;20430;-49
2022/11/07 02:25:38;;;;;;;22.93;20.37;;;8.00;99.90;;;;;;4993025;28;20420;-47
2022/11/07 02:28:08;;;;;;;23.93;21.17;;;8.00;99.90;;;;;;5003909;28;20479;-51
2022/11/07 02:30:34;;;;;;;23.80;21.20;;;7.90;99.90;;;;;;5005389;28;20991;-54
2022/11/07 02:33:01;;;;;;;26.50;22.00;;;7.80;99.90;;;;;;5007983;28;20523;-48
2022/11/07 02:35:45;;;;;;;21.63;19.37;;;7.80;99.90;;;;;;5001955;28;20207;-55
2022/11/07 02:38:29;;;;;;;23.20;20.77;;;7.70;99.90;;;;;;5011147;28;20436;-46
2022/11/07 02:41:06;;;;;;;24.43;21.50;;;7.70;99.90;;;;;;5012172;28;20892;-48
2022/11/07 02:43:34;;;;;;;26.27;21.00;;;7.60;99.90;;;;;;5003699;28;20429;-49
2022/11/07 02:46:04;;;;;;;26.20;22.07;;;7.60;99.90;;;;;;4992913;28;21062;-50
2022/11/07 02:48:31;;;;;;;25.07;21.90;;;7.60;99.90;;;;;;5006197;28;20446;-47
2022/11/07 02:50:57;;;;;;;24.70;20.97;;;7.50;99.90;;;;;;5011932;28;20407;-48
2022/11/07 02:53:23;;;;;;;25.30;21.23;;;7.50;99.90;;;;;;4996444;28;20961;-48
2022/11/07 02:55:48;;;;;;;23.20;20.70;;;7.50;99.90;;;;;;5004690;28;20836;-50
2022/11/07 02:58:14;;;;;;;22.77;20.50;;;7.40;99.90;;;;;;5009205;28;20445;-53
2022/11/07 03:00:40;;;;;;;24.47;20.60;;;7.40;99.90;;;;;;5007160;28;20205;-54
2022/11/07 03:03:06;;;;;;;24.20;20.13;;;7.40;99.90;;;;;;5009934;28;20504;-52
2022/11/07 03:05:31;;;;;;;22.77;20.47;;;7.40;99.90;;;;;;5011355;28;20183;-51
2022/11/07 03:07:57;;;;;;;23.77;21.17;;;7.40;99.90;;;;;;5010573;28;20627;-50
2022/11/07 03:10:23;;;;;;;22.50;20.00;;;7.40;99.90;;;;;;5011560;28;20191;-52
2022/11/07 03:12:48;;;;;;;25.07;20.93;;;7.30;99.90;;;;;;5001119;28;20183;-52
2022/11/07 03:15:14;;;;;;;23.50;21.00;;;7.40;99.90;;;;;;4996967;28;20301;-48
2022/11/07 03:17:40;;;;;;;24.80;22.13;;;7.30;99.90;;;;;;5005249;28;20220;-49
2022/11/07 03:20:06;;;;;;;23.50;21.00;;;7.30;99.90;;;;;;5014006;28;20594;-54
2022/11/07 03:22:32;;;;;;;22.90;20.37;;;7.30;99.90;;;;;;5009297;28;20432;-52
2022/11/07 03:24:57;;;;;;;22.40;20.00;;;7.20;99.90;;;;;;5008898;28;20836;-50
2022/11/07 03:27:23;;;;;;;24.47;20.10;;;7.10;99.90;;;;;;5008450;28;20946;-50
2022/11/07 03:29:49;;;;;;;24.60;21.30;;;7.10;99.90;;;;;;5011111;28;20179;-49
2022/11/07 03:32:14;;;;;;;24.37;20.37;;;7.00;99.90;;;;;;5008202;28;20189;-52
2022/11/07 03:34:40;;;;;;;23.70;20.20;;;7.00;99.90;;;;;;5010795;28;20552;-50
2022/11/07 03:37:05;;;;;;;23.40;20.17;;;7.00;99.90;;;;;;5008934;28;20624;-50
2022/11/07 03:39:31;;;;;;;22.20;19.93;;;7.10;99.90;;;;;;4998150;28;20183;-50
2022/11/07 03:41:56;;;;;;;22.47;20.00;;;7.10;99.90;;;;;;5001899;28;20190;-51
2022/11/07 03:44:22;;;;;;;21.77;19.50;;;7.10;99.90;;;;;;5010853;28;20712;-48
2022/11/07 03:46:48;;;;;;;24.00;21.07;;;7.10;99.90;;;;;;4997626;28;20198;-54
2022/11/07 03:49:13;;;;;;;21.90;19.67;;;7.10;99.90;;;;;;5010360;28;20190;-47
2022/11/07 03:51:39;;;;;;;23.30;20.80;;;7.10;99.90;;;;;;5007108;28;20194;-51
2022/11/07 03:54:04;;;;;;;22.87;20.47;;;7.00;99.90;;;;;;5009703;28;20210;-48
2022/11/07 03:56:30;;;;;;;23.50;21.00;;;7.00;99.90;;;;;;5008524;28;20199;-55
2022/11/07 03:58:55;;;;;;;23.00;20.60;;;7.00;99.90;;;;;;4998239;28;20179;-51
2022/11/07 04:01:21;;;;;;;21.77;19.53;;;7.00;99.90;;;;;;5009075;28;20214;-48
2022/11/07 04:03:47;;;;;;;20.93;18.83;;;7.10;99.90;;;;;;5010712;28;20656;-50
2022/11/07 04:06:12;;;;;;;23.70;20.60;;;7.10;99.90;;;;;;5009086;28;20197;-52
2022/11/07 04:08:38;;;;;;;22.33;19.93;;;7.10;99.90;;;;;;5003218;28;20278;-49
2022/11/07 04:11:03;;;;;;;21.73;19.30;;;7.10;99.90;;;;;;5008249;28;20672;-49
2022/11/07 04:19:01;;;;;;;22.63;19.87;;;7.30;99.90;;;;;;5004042;28;20448;-50
2022/11/07 04:21:26;;;;;;;21.77;19.37;;;7.30;99.90;;;;;;5009438;28;20566;-50
2022/11/07 04:23:52;;;;;;;19.77;17.67;;;7.30;99.90;;;;;;5002421;28;20882;-48
2022/11/07 04:29:02;;;;;;;20.50;18.30;;;7.40;99.90;;;;;;4994593;28;20330;-51
2022/11/07 04:31:28;;;;;;;21.10;18.90;;;7.30;99.90;;;;;;5007177;28;20906;-53
2022/11/07 04:33:54;;;;;;;21.20;19.00;;;7.30;99.90;;;;;;4999772;28;20452;-52
2022/11/07 04:36:19;;;;;;;21.07;18.97;;;7.30;99.90;;;;;;5007672;28;20473;-51
2022/11/07 04:38:45;;;;;;;20.77;18.50;;;7.40;99.90;;;;;;5006842;28;20653;-49
2022/11/07 04:41:22;;;;;;;23.10;19.20;;;7.40;99.90;;;;;;5004307;28;20208;-51
2022/11/07 04:43:48;;;;;;;22.50;19.90;;;7.40;99.90;;;;;;4999522;28;20203;-51
2022/11/07 04:46:15;;;;;;;20.00;17.90;;;7.50;99.90;;;;;;5001258;28;20499;-49
2022/11/07 04:48:40;;;;;;;20.13;18.00;;;7.60;99.90;;;;;;5008196;28;20194;-53
2022/11/07 04:51:10;;;;;;;20.17;18.07;;;7.60;99.90;;;;;;5007801;28;21015;-49
2022/11/07 04:53:36;;;;;;;23.70;20.13;;;7.60;99.90;;;;;;5008397;28;20179;-51
2022/11/07 04:56:01;;;;;;;21.70;19.30;;;7.70;99.90;;;;;;5007533;28;20467;-50
2022/11/07 04:58:27;;;;;;;22.17;19.67;;;7.70;99.90;;;;;;5003255;28;20601;-49
2022/11/07 05:00:52;;;;;;;20.73;18.50;;;7.80;99.90;;;;;;4989216;28;20180;-47
2022/11/07 05:03:18;;;;;;;21.73;19.23;;;7.80;99.90;;;;;;4998446;28;20214;-51
2022/11/07 05:05:43;;;;;;;22.00;17.90;;;7.90;99.90;;;;;;5006540;28;20270;-48
2022/11/07 05:08:09;;;;;;;20.97;17.73;;;7.90;99.90;;;;;;5005772;28;20195;-49
2022/11/07 05:10:35;;;;;;;21.80;18.73;;;7.80;99.90;;;;;;5007759;28;20187;-47
2022/11/07 05:13:00;;;;;;;21.53;19.17;;;7.90;99.90;;;;;;5003012;28;20194;-54
2022/11/07 05:15:26;;;;;;;19.43;17.40;;;7.90;99.90;;;;;;4998383;28;20207;-50
2022/11/07 05:17:51;;;;;;;20.43;18.33;;;7.90;99.90;;;;;;4987217;28;20214;-48
2022/11/07 05:20:27;;;;;;;20.93;18.83;;;7.90;99.90;;;;;;4987202;28;20309;-47
2022/11/07 05:23:16;;;;;;;21.17;18.97;;;7.80;99.90;;;;;;4991718;28;20532;-54
2022/11/07 05:25:47;;;;;;;22.83;20.20;;;7.70;99.90;;;;;;4994104;28;20435;-52
2022/11/07 05:28:15;;;;;;;22.13;18.73;;;7.70;99.90;;;;;;4992397;28;20810;-47
2022/11/07 05:30:42;;;;;;;22.50;19.77;;;7.70;99.90;;;;;;4995768;28;20476;-47
2022/11/07 05:33:09;;;;;;;21.83;19.10;;;7.60;99.90;;;;;;4988255;28;20953;-50
2022/11/07 05:35:35;;;;;;;25.00;20.90;;;7.60;99.90;;;;;;4995259;28;20964;-51
2022/11/07 05:38:01;;;;;;;22.00;19.47;;;7.50;99.90;;;;;;4988935;28;20496;-49
2022/11/07 05:40:27;;;;;;;21.37;19.17;;;7.50;99.90;;;;;;4991854;28;20446;-50
2022/11/07 05:43:01;;;;;;;22.37;20.00;;;7.50;99.90;;;;;;5001905;28;20784;-47
2022/11/07 05:45:27;;;;;;;22.60;20.17;;;7.40;99.90;;;;;;5002937;28;20523;-52
2022/11/07 05:48:00;;;;;;;22.53;20.13;;;7.40;99.90;;;;;;5002081;28;21009;-50
2022/11/07 05:50:27;;;;;;;24.63;20.77;;;7.40;99.90;;;;;;4992776;28;20418;-46
2022/11/07 05:52:53;;;;;;;23.60;20.60;;;7.20;99.90;;;;;;4988947;28;20837;-46
2022/11/07 05:55:19;;;;;;;22.77;20.20;;;7.20;99.90;;;;;;4988628;28;20465;-48
2022/11/07 05:57:44;;;;;;;23.40;20.33;;;7.20;99.90;;;;;;4988687;28;20917;-49
2022/11/07 06:00:11;;;;;;;25.00;21.60;;;7.10;99.90;;;;;;4988871;28;20624;-49
2022/11/07 06:02:36;;;;;;;24.60;21.90;;;7.00;99.90;;;;;;4997323;28;20277;-50
2022/11/07 06:05:02;;;;;;;25.00;21.17;;;6.90;99.90;;;;;;4987580;28;21203;-50
2022/11/07 06:07:27;;;;;;;25.97;23.17;;;6.90;99.90;;;;;;4988809;28;20619;-49
2022/11/07 06:09:53;;;;;;;25.40;20.43;;;6.90;99.90;;;;;;4988703;28;20186;-49
2022/11/07 06:12:18;;;;;;;23.53;21.07;;;6.90;99.90;;;;;;4988797;28;20194;-49
2022/11/07 06:14:44;;;;;;;28.97;22.50;;;6.90;99.90;;;;;;4988458;28;20253;-48
2022/11/07 06:17:09;;;;;;;23.60;21.03;;;6.80;99.90;;;;;;4998584;28;20174;-49
2022/11/07 06:19:35;;;;;;;25.43;21.90;;;6.80;99.90;;;;;;5011729;28;20169;-47
2022/11/07 06:22:01;;;;;;;23.87;21.27;;;6.80;99.90;;;;;;5000246;28;20190;-47
2022/11/07 06:24:26;;;;;;;31.43;22.87;;;6.70;99.90;;;;;;5007328;28;20188;-50
2022/11/07 06:26:52;;;;;;;26.67;23.37;;;6.70;99.90;;;;;;5011614;28;20229;-50
2022/11/07 06:29:18;;;;;;;26.93;24.20;;;6.80;99.90;;;;;;5011588;28;20177;-53
2022/11/07 06:31:43;;;;;;;23.90;21.30;;;6.80;99.90;;;;;;5011325;28;20656;-50
2022/11/07 06:34:09;;;;;;;25.40;22.47;;;6.90;99.90;;;;;;5011407;28;20193;-52
2022/11/07 06:36:34;;;;;;;26.20;22.60;;;6.80;99.90;;;;;;5011220;28;20660;-48
2022/11/07 06:39:00;;;;;;;25.77;22.73;;;6.80;99.90;;;;;;5011411;28;20218;-49
2022/11/07 06:41:25;;;;;;;28.10;22.23;;;6.80;99.90;;;;;;5010613;28;20621;-51
2022/11/07 06:43:51;;;;;;;25.17;22.43;;;6.80;99.90;;;;;;5006026;28;20754;-48
2022/11/07 06:46:18;;;;;;;28.10;22.63;;;6.80;99.90;;;;;;5011108;28;20655;-48
2022/11/07 06:48:44;;;;;;;27.53;21.90;;;6.80;99.90;;;;;;5011299;28;20185;-49
2022/11/07 06:51:10;;;;;;;25.40;22.40;;;6.80;99.90;;;;;;5010381;28;20452;-54
2022/11/07 06:53:36;;;;;;;24.40;21.17;;;6.90;99.90;;;;;;4998638;28;20419;-48
2022/11/07 06:56:04;;;;;;;25.63;22.70;;;6.90;99.90;;;;;;4991327;28;20865;-49
2022/11/07 06:58:29;;;;;;;27.33;22.17;;;6.90;99.90;;;;;;4991564;28;20488;-51
2022/11/07 07:01:04;;;;;;;24.23;21.53;;;7.00;99.90;;;;;;4991402;28;20492;-54
2022/11/07 07:03:30;;;;;;;23.47;20.97;;;7.00;99.90;;;;;;4991394;28;20419;-51
2022/11/07 07:06:04;;;;;;;26.03;21.23;;;7.10;99.90;;;;;;4991729;28;20423;-47
2022/11/07 07:08:30;;;;;;;25.93;21.10;;;7.10;99.90;;;;;;4989924;28;20470;-47
2022/11/07 07:10:56;;;;;;;22.93;20.57;;;7.20;99.90;;;;;;4999323;28;20481;-47
2022/11/07 07:13:21;;;;;;;22.97;19.63;;;7.30;99.90;;;;;;4991117;28;20731;-48
2022/11/07 07:15:54;;;;;;;22.90;20.53;;;7.30;99.90;;;;;;4991180;28;20633;-47
2022/11/07 07:18:20;;;;;;;25.50;20.77;;;7.40;99.90;;;;;;4994064;28;20680;-48
2022/11/07 07:20:49;;;;;;;21.23;18.03;;;7.40;99.90;;;;;;5010696;28;20471;-53
2022/11/07 07:23:16;;;;;;;21.70;19.40;;;7.40;99.90;;;;;;5010421;28;20467;-47
2022/11/07 07:25:42;;;;;;;21.73;19.50;;;7.50;99.90;;;;;;5002480;28;20429;-49
2022/11/07 07:28:08;;;;;;;22.67;18.57;;;7.60;99.90;;;;;;4990768;28;20909;-50
2022/11/07 07:30:33;;;;;;;20.10;18.00;;;7.70;99.90;;;;;;4991044;28;20194;-48
2022/11/07 07:32:59;;;;;;;20.43;18.37;;;7.80;99.90;;;;;;4990605;28;20184;-50
2022/11/07 07:35:24;;;;;;;20.37;18.27;;;7.90;99.90;;;;;;4989700;28;20199;-52
2022/11/07 07:37:50;;;;;;;20.47;18.30;;;8.10;99.90;;;;;;4994282;28;20271;-51
2022/11/07 07:40:17;;;;;;;19.70;17.70;;;8.40;99.90;;;;;;5002159;28;20183;-50
2022/11/07 07:42:43;;;;;;;19.50;17.60;;;8.80;99.90;;;;;;4990496;28;20419;-50
2022/11/07 07:45:11;;;;;;;16.60;15.00;;;9.40;99.90;;;;;;4992856;28;20474;-49
2022/11/07 07:47:37;;;;;;;17.20;15.50;;;9.90;99.90;;;;;;5002367;28;20484;-49
2022/11/07 07:50:04;;;;;;;17.10;15.40;;;10.30;99.90;;;;;;5010146;28;20508;-52
2022/11/07 07:52:30;;;;;;;18.00;16.30;;;10.80;99.90;;;;;;5010158;28;20436;-49
2022/11/07 07:54:56;;;;;;;16.20;14.70;;;11.30;99.90;;;;;;5010090;28;20597;-47
2022/11/07 07:57:21;;;;;;;17.33;15.67;;;11.60;99.90;;;;;;5010254;28;20186;-50
2022/11/07 07:59:47;;;;;;;16.87;15.03;;;11.50;99.90;;;;;;5009823;28;20239;-51
2022/11/07 08:02:12;;;;;;;17.13;15.47;;;11.60;99.90;;;;;;5009842;28;20223;-50
2022/11/07 08:04:40;;;;;;;16.00;14.53;;;11.90;99.90;;;;;;5009728;28;20536;-49
2022/11/07 08:07:05;;;;;;;17.20;15.60;;;12.10;99.90;;;;;;5009848;28;20186;-49
2022/11/07 08:09:35;;;;;;;18.03;16.23;;;12.50;99.90;;;;;;4994613;28;20776;-47
2022/11/07 08:12:02;;;;;;;16.10;14.70;;;12.80;99.90;;;;;;4990127;28;20186;-48
2022/11/07 08:14:27;;;;;;;15.33;14.03;;;13.00;99.90;;;;;;4989946;28;20782;-52
2022/11/07 08:16:53;;;;;;;16.77;15.17;;;13.30;99.90;;;;;;4988644;28;20440;-48
2022/11/07 08:19:18;;;;;;;16.60;15.10;;;13.70;99.90;;;;;;5010229;28;20244;-49
2022/11/07 08:21:44;;;;;;;15.67;14.27;;;14.20;99.90;;;;;;5007989;28;20275;-49
2022/11/07 08:24:09;;;;;;;16.87;15.47;;;14.60;99.90;;;;;;4996196;28;20191;-49
2022/11/07 08:26:36;;;;;;;17.77;16.27;;;14.90;99.90;;;;;;4989939;28;20195;-48
2022/11/07 08:29:02;;;;;;;17.37;15.97;;;15.10;98.40;;;;;;4995366;28;20695;-51
2022/11/07 08:31:28;;;;;;;17.20;15.90;;;15.30;97.60;;;;;;5002006;28;20450;-47
2022/11/07 08:33:57;;;;;;;17.47;15.93;;;15.60;96.80;;;;;;4989699;28;20882;-47
2022/11/07 08:36:23;;;;;;;18.20;16.70;;;16.10;95.80;;;;;;4989898;28;20207;-47
2022/11/07 08:38:48;;;;;;;16.53;15.13;;;16.20;94.50;;;;;;4989461;28;20422;-50
2022/11/07 08:41:14;;;;;;;17.07;15.67;;;16.60;94.10;;;;;;4999601;28;20622;-48
2022/11/07 08:43:39;;;;;;;18.60;17.27;;;16.90;92.40;;;;;;5005705;28;20200;-46
2022/11/07 08:46:05;;;;;;;17.90;16.50;;;16.80;91.20;;;;;;4999197;28;20270;-56
2022/11/07 08:48:31;;;;;;;18.23;16.93;;;16.70;91.80;;;;;;5005572;28;20196;-50
2022/11/07 08:50:57;;;;;;;17.80;16.30;;;16.70;91.80;;;;;;4989643;28;20645;-48
2022/11/07 08:53:25;;;;;;;18.57;17.17;;;17.00;92.10;;;;;;5001184;28;20709;-48
2022/11/07 08:55:51;;;;;;;17.73;16.23;;;17.30;91.10;;;;;;4989542;28;20497;-48
2022/11/07 08:58:17;;;;;;;18.30;16.83;;;17.70;89.80;;;;;;4990105;28;20426;-52
2022/11/07 09:00:43;;;;;;;17.60;16.30;;;17.80;88.50;;;;;;4989597;28;20426;-49
2022/11/07 09:03:10;;;;;;;14.93;13.83;;;18.50;85.20;;;;;;4989210;28;20530;-51
2022/11/07 09:05:38;;;;;;;16.90;15.53;;;18.70;80.30;;;;;;4989079;28;20180;-53
2022/11/07 09:08:04;;;;;;;17.07;15.60;;;19.00;77.50;;;;;;4989170;28;20438;-48
2022/11/07 09:10:29;;;;;;;16.07;14.97;;;19.30;76.90;;;;;;4989255;28;20431;-53
2022/11/07 09:12:55;;;;;;;14.47;13.40;;;19.80;72.80;;;;;;4989504;28;20634;-49
2022/11/07 09:15:20;;;;;;;13.77;12.87;;;20.10;69.50;;;;;;4992648;28;20219;-52
2022/11/07 09:17:47;;;;;;;14.13;13.37;;;20.00;68.50;;;;;;4993563;28;20191;-50
2022/11/07 09:20:13;;;;;;;13.33;12.43;;;20.10;69.60;;;;;;5015747;28;20238;-50
2022/11/07 09:22:39;;;;;;;14.53;13.63;;;20.30;65.50;;;;;;5008484;28;20504;-53
2022/11/07 09:25:05;;;;;;;13.43;12.60;;;20.50;65.10;;;;;;4999440;28;20427;-51
2022/11/07 09:27:31;;;;;;;13.73;12.83;;;20.50;66.50;;;;;;4989041;28;20445;-52
2022/11/07 09:29:56;;;;;;;13.90;13.00;;;20.50;66.00;;;;;;4989093;28;20573;-52
2022/11/07 09:32:22;;;;;;;13.60;12.80;;;21.00;65.30;;;;;;4989016;28;20267;-51
2022/11/07 09:34:47;;;;;;;12.37;11.40;;;21.90;62.40;;;;;;4989073;28;20206;-49
2022/11/07 09:37:13;;;;;;;12.57;11.77;;;22.20;58.90;;;;;;4988808;28;20172;-49
2022/11/07 09:39:38;;;;;;;13.50;12.60;;;22.40;55.60;;;;;;4991771;28;20265;-49
2022/11/07 09:42:35;;;;;;;13.00;12.20;;;22.30;56.90;;;;;;5008390;28;20175;-49
2022/11/07 09:45:01;;;;;;;12.13;11.43;;;22.50;55.10;;;;;;5003911;28;20190;-48
2022/11/07 09:47:40;;;;;;;10.83;10.20;;;22.60;53.60;;;;;;4988800;28;20438;-51
2022/11/07 09:50:17;;;;;;;11.27;10.57;;;22.60;54.30;;;;;;4989079;28;20541;-49
2022/11/07 09:53:22;;;;;;;11.13;10.53;;;22.80;54.50;;;;;;4988874;28;20427;-47
2022/11/07 09:55:56;;;;;;;9.60;9.20;;;22.80;54.50;;;;;;4988272;28;20852;-48
2022/11/07 09:58:30;;;;;;;10.27;9.77;;;23.00;52.00;;;;;;5008827;28;20437;-47
2022/11/07 10:01:02;;;;;;;11.23;10.73;;;23.20;50.80;;;;;;5010629;28;20759;-50
2022/11/07 10:03:28;;;;;;;10.63;10.03;;;23.40;51.50;;;;;;5012064;28;20911;-51
2022/11/07 10:06:10;;;;;;;10.83;10.33;;;23.50;50.00;;;;;;5003665;28;20438;-49
2022/11/07 10:08:54;;;;;;;10.40;9.87;;;23.30;49.80;;;;;;5001071;28;20630;-49
2022/11/07 10:11:39;;;;;;;10.57;10.07;;;24.10;49.10;;;;;;5012157;28;20460;-50
2022/11/07 10:14:17;;;;;;;11.30;10.70;;;24.20;47.90;;;;;;5011884;28;20457;-48
2022/11/07 10:16:52;;;;;;;10.83;10.27;;;24.80;47.40;;;;;;5011844;28;20511;-46
2022/11/07 10:19:30;;;;;;;10.97;10.37;;;24.50;45.70;;;;;;5019202;28;20632;-46
2022/11/07 10:22:17;;;;;;;10.60;10.00;;;23.10;49.00;;;;;;5012095;28;20924;-48
2022/11/07 10:25:17;;;;;;;9.43;9.00;;;23.80;48.00;;;;;;5011817;28;20413;-49
2022/11/07 10:27:48;;;;;;;9.17;8.70;;;23.50;45.20;;;;;;5011689;28;20756;-47
2022/11/07 10:30:18;;;;;;;9.90;9.40;;;22.20;45.40;;;;;;5006477;28;20473;-47
2022/11/07 10:32:57;;;;;;;9.50;8.90;;;21.80;49.90;;;;;;5003134;28;20916;-50
2022/11/07 10:35:48;;;;;;;9.53;8.93;;;21.60;49.10;;;;;;5011148;28;20866;-48
2022/11/07 10:38:21;;;;;;;9.47;8.97;;;21.70;49.40;;;;;;5010983;28;20437;-47
2022/11/07 10:40:49;;;;;;;9.50;9.00;;;21.60;49.70;;;;;;5010062;28;20485;-51
2022/11/07 10:43:35;;;;;;;9.50;9.00;;;21.70;49.20;;;;;;5011261;28;20438;-49
2022/11/07 10:46:03;;;;;;;9.00;8.60;;;21.70;50.20;;;;;;5011090;28;20946;-48
2022/11/07 10:48:29;;;;;;;9.60;9.13;;;21.60;48.50;;;;;;5011420;28;20472;-51
2022/11/07 10:50:55;;;;;;;9.20;8.80;;;20.60;49.30;;;;;;5011069;28;20418;-47
2022/11/07 10:53:24;;;;;;;9.17;8.77;;;20.40;49.00;;;;;;5011341;28;20425;-48
2022/11/07 10:55:50;;;;;;;9.30;8.80;;;20.30;51.40;;;;;;5010888;28;20457;-48
2022/11/07 10:58:26;;;;;;;9.33;8.80;;;19.70;50.80;;;;;;5011064;28;20453;-50
2022/11/07 11:01:24;;;;;;;9.73;9.23;;;18.90;51.70;;;;;;4994186;28;20448;-47
2022/11/07 11:03:50;;;;;;;9.90;9.40;;;19.20;54.10;;;;;;4991299;28;20489;-53
2022/11/07 11:06:16;;;;;;;9.50;9.00;;;19.80;52.50;;;;;;4991368;28;20913;-48
2022/11/07 11:08:41;;;;;;;9.30;8.90;;;20.00;51.50;;;;;;4991017;28;20191;-47
2022/11/07 11:11:20;;;;;;;9.80;9.20;;;20.40;52.00;;;;;;4991283;28;20215;-49
2022/11/07 11:13:46;;;;;;;9.10;8.60;;;21.00;50.60;;;;;;4991166;28;20188;-47
2022/11/07 11:16:30;;;;;;;9.03;8.53;;;21.70;48.90;;;;;;4991223;28;20467;-48
2022/11/07 11:19:00;;;;;;;8.13;7.60;;;22.30;48.40;;;;;;5012297;28;20421;-49
2022/11/07 11:21:36;;;;;;;7.90;7.50;;;22.60;46.80;;;;;;5010757;28;20895;-47
2022/11/07 11:24:22;;;;;;;7.73;7.33;;;21.70;46.20;;;;;;5010480;28;20504;-47
2022/11/07 11:26:49;;;;;;;8.20;7.70;;;21.80;48.00;;;;;;5010324;28;20417;-45
2022/11/07 11:30:00;;;;;;;7.80;7.30;;;21.30;47.20;;;;;;5009572;28;20817;-47
2022/11/07 11:32:31;;;;;;;7.40;6.90;;;20.60;48.20;;;;;;5010518;28;20904;-48
2022/11/07 11:35:29;;;;;;;8.20;7.70;;;19.90;50.90;;;;;;5010027;28;20458;-52
2022/11/07 11:38:01;;;;;;;8.30;7.93;;;20.10;50.20;;;;;;5010243;28;20784;-48
2022/11/07 11:40:32;;;;;;;8.60;8.17;;;20.20;51.70;;;;;;5008779;28;20426;-51
2022/11/07 11:43:10;;;;;;;9.23;8.63;;;20.60;51.20;;;;;;4995159;28;20420;-48
2022/11/07 11:46:09;;;;;;;8.30;7.83;;;21.20;50.20;;;;;;4990826;28;20415;-51
2022/11/07 11:48:46;;;;;;;7.97;7.57;;;21.80;48.30;;;;;;4997001;28;20904;-46
2022/11/07 11:51:37;;;;;;;8.20;7.80;;;21.70;47.60;;;;;;5010227;28;21008;-49
2022/11/07 11:54:08;;;;;;;9.40;8.63;;;21.20;47.50;;;;;;5009997;28;20476;-50
2022/11/07 11:56:53;;;;;;;8.00;7.50;;;21.00;49.00;;;;;;5009729;28;20453;-52
2022/11/07 11:59:29;;;;;;;8.70;8.30;;;21.10;49.60;;;;;;5004205;28;20529;-47
2022/11/07 12:02:02;;;;;;;8.83;8.33;;;20.90;49.20;;;;;;4990209;28;20466;-50
2022/11/07 12:04:49;;;;;;;8.63;8.23;;;20.20;50.90;;;;;;4990801;28;20418;-48
2022/11/07 12:07:33;;;;;;;8.60;8.10;;;19.30;52.20;;;;;;4989958;28;20880;-51
2022/11/07 12:09:59;;;;;;;8.23;7.80;;;18.10;56.70;;;;;;4990206;28;20408;-51
2022/11/07 12:13:21;;;;;;;8.63;8.23;;;17.80;57.40;;;;;;4989892;28;20473;-46
2022/11/07 12:16:10;;;;;;;8.73;8.23;;;17.30;59.90;;;;;;5005205;28;20237;-50
2022/11/07 12:18:57;;;;;;;8.00;7.60;;;17.10;61.70;;;;;;5010316;28;20413;-49
2022/11/07 12:21:35;;;;;;;8.53;8.03;;;17.10;62.40;;;;;;5001697;28;21022;-46
2022/11/07 12:24:08;;;;;;;8.67;8.00;;;17.00;64.20;;;;;;5009524;28;20414;-50
2022/11/07 12:26:36;;;;;;;8.07;7.57;;;17.00;66.10;;;;;;5009535;28;20924;-49
2022/11/07 12:29:18;;;;;;;8.30;7.90;;;17.00;64.30;;;;;;5008487;28;20435;-49
2022/11/07 12:32:07;;;;;;;9.23;8.73;;;16.80;66.20;;;;;;5007457;28;20417;-46
2022/11/07 12:34:57;;;;;;;8.47;7.97;;;16.80;67.90;;;;;;4989573;28;20485;-46
2022/11/07 12:38:11;;;;;;;8.50;8.00;;;16.80;70.10;;;;;;4998223;28;20406;-48
2022/11/07 12:41:06;;;;;;;8.27;7.87;;;16.70;71.10;;;;;;5006639;28;20827;-51
2022/11/07 12:43:31;;;;;;;9.33;8.63;;;16.70;70.30;;;;;;5009033;28;20437;-48
2022/11/07 12:46:08;;;;;;;8.50;8.10;;;16.60;73.10;;;;;;5009194;28;20903;-49
2022/11/07 12:48:36;;;;;;;8.07;7.67;;;16.60;73.50;;;;;;5009836;28;20237;-50
2022/11/07 12:51:24;;;;;;;8.40;7.80;;;16.60;72.20;;;;;;5009166;28;20425;-47
2022/11/07 12:54:17;;;;;;;8.60;8.10;;;16.60;72.30;;;;;;5008053;28;20430;-51
2022/11/07 12:56:45;;;;;;;8.20;7.60;;;16.60;73.10;;;;;;5000656;28;20458;-51
2022/11/07 12:59:24;;;;;;;6.93;6.50;;;16.80;75.90;;;;;;4989174;28;20419;-48
2022/11/07 13:02:28;;;;;;;7.97;7.27;;;16.70;72.30;;;;;;4989464;28;20928;-48
2022/11/07 13:05:10;;;;;;;9.00;8.50;;;16.70;74.50;;;;;;4994100;28;20863;-46